createdAt,value
2018-07-04T00:02:01.734Z,63.45
2018-07-04T00:04:42.058Z,63.12
2018-07-04T00:07:22.250Z,63.39
2018-07-04T00:10:02.685Z,62.96
2018-07-04T00:12:43.093Z,63.93
2018-07-04T00:15:23.378Z,65.14
2018-07-04T00:18:03.696Z,66.24
2018-07-04T00:20:43.979Z,64.88
2018-07-04T00:23:24.305Z,64.37
2018-07-04T00:26:04.669Z,64.01
2018-07-04T00:28:45.020Z,64.31
2018-07-04T00:31:25.284Z,64.37
2018-07-04T00:34:05.798Z,64.34
2018-07-04T00:36:46.108Z,64.31
2018-07-04T00:39:26.353Z,63.89
2018-07-04T00:42:06.622Z,64.39
2018-07-04T00:44:46.959Z,64.18
2018-07-04T00:47:27.430Z,63.94
2018-07-04T00:50:08.246Z,63.83
2018-07-04T00:52:48.477Z,64.73
2018-07-04T00:55:28.923Z,67.45
2018-07-04T00:58:09.277Z,66.19
2018-07-04T01:00:49.726Z,65.42
2018-07-04T01:03:30.069Z,64.94
2018-07-04T01:06:10.484Z,64.40
2018-07-04T01:08:50.846Z,65.18
2018-07-04T01:11:31.245Z,64.36
2018-07-04T01:14:11.636Z,64.38
2018-07-04T01:16:52.094Z,64.55
2018-07-04T01:19:32.570Z,67.19
2018-07-04T01:22:12.865Z,65.61
2018-07-04T01:24:53.373Z,65.19
2018-07-04T01:27:33.933Z,64.67
2018-07-04T01:30:16.683Z,64.45
2018-07-04T01:32:57.218Z,64.90
2018-07-04T01:35:37.566Z,65.46
2018-07-04T01:38:18.046Z,67.14
2018-07-04T01:40:58.570Z,65.72
2018-07-04T01:43:38.933Z,66.17
2018-07-04T01:46:19.467Z,65.80
2018-07-04T01:48:59.789Z,65.05
2018-07-04T01:51:40.498Z,64.62
2018-07-04T01:54:20.994Z,64.82
2018-07-04T01:57:01.509Z,65.86
2018-07-04T01:59:41.742Z,65.64
2018-07-04T02:02:22.154Z,65.92
2018-07-04T02:05:02.453Z,65.54
2018-07-04T02:07:42.885Z,65.73
2018-07-04T02:10:23.253Z,65.52
2018-07-04T02:13:03.675Z,65.17
2018-07-04T02:15:44.028Z,67.06
2018-07-04T02:18:24.442Z,66.25
2018-07-04T02:21:04.707Z,65.96
2018-07-04T02:23:45.082Z,66.67
2018-07-04T02:26:25.482Z,66.76
2018-07-04T02:29:05.756Z,65.38
2018-07-04T02:31:46.110Z,65.65
2018-07-04T02:34:27.300Z,65.42
2018-07-04T02:37:09.054Z,65.17
2018-07-04T02:39:49.321Z,64.86
2018-07-04T02:42:29.505Z,65.04
2018-07-04T02:45:09.689Z,65.71
2018-07-04T02:47:50.267Z,64.92
2018-07-04T02:50:30.650Z,65.76
2018-07-04T02:53:11.089Z,65.73
2018-07-04T02:55:51.537Z,65.61
2018-07-04T02:58:31.774Z,65.35
2018-07-04T03:01:12.154Z,65.22
2018-07-04T03:03:52.590Z,65.59
2018-07-04T03:06:32.902Z,66.19
2018-07-04T03:09:13.331Z,65.56
2018-07-04T03:11:53.602Z,65.81
2018-07-04T03:14:33.914Z,66.58
2018-07-04T03:17:14.192Z,67.72
2018-07-04T03:19:54.637Z,66.41
2018-07-04T03:22:34.921Z,66.02
2018-07-04T03:25:15.361Z,66.96
2018-07-04T03:27:55.885Z,66.94
2018-07-04T03:30:36.192Z,69.28
2018-07-04T03:33:16.691Z,70.76
2018-07-04T03:35:57.176Z,69.12
2018-07-04T03:38:37.671Z,69.46
2018-07-04T03:41:18.047Z,70.82
2018-07-04T03:43:58.396Z,69.59
2018-07-04T03:46:38.894Z,68.94
2018-07-04T03:49:19.246Z,67.53
2018-07-04T03:51:59.708Z,67.41
2018-07-04T03:54:40.171Z,67.85
2018-07-04T03:57:20.523Z,69.96
2018-07-04T04:00:00.877Z,67.82
2018-07-04T04:02:41.251Z,67.00
2018-07-04T04:05:21.920Z,67.10
2018-07-04T04:08:02.354Z,69.11
2018-07-04T04:10:42.665Z,67.54
2018-07-04T04:13:23.093Z,67.00
2018-07-04T04:16:03.294Z,66.15
2018-07-04T04:18:43.805Z,66.81
2018-07-04T04:21:24.247Z,66.28
2018-07-04T04:24:04.502Z,66.04
2018-07-04T04:26:44.831Z,65.67
2018-07-04T04:29:25.185Z,65.00
2018-07-04T04:32:05.551Z,64.91
2018-07-04T04:34:45.955Z,64.06
2018-07-04T04:37:26.520Z,64.40
2018-07-04T04:40:07.003Z,64.06
2018-07-04T04:42:47.324Z,64.34
2018-07-04T04:45:27.808Z,64.96
2018-07-04T04:48:08.169Z,65.37
2018-07-04T04:50:48.733Z,64.91
2018-07-04T04:53:29.224Z,64.39
2018-07-04T04:56:09.745Z,64.81
2018-07-04T04:58:49.897Z,64.36
2018-07-04T05:01:30.443Z,63.71
2018-07-04T05:04:10.688Z,63.13
2018-07-04T05:06:51.036Z,63.25
2018-07-04T05:09:31.477Z,62.44
2018-07-04T05:12:11.859Z,63.37
2018-07-04T05:14:52.205Z,64.32
2018-07-04T05:17:32.458Z,63.17
2018-07-04T05:20:12.746Z,64.38
2018-07-04T05:22:53.036Z,63.68
2018-07-04T05:25:33.414Z,63.69
2018-07-04T05:28:13.835Z,64.20
2018-07-04T05:30:54.116Z,62.21
2018-07-04T05:33:34.925Z,64.30
2018-07-04T05:36:15.470Z,65.71
2018-07-04T05:38:55.799Z,63.11
2018-07-04T05:41:36.390Z,63.74
2018-07-04T05:44:16.787Z,61.20
2018-07-04T05:46:57.043Z,60.59
2018-07-04T05:49:37.467Z,62.22
2018-07-04T05:52:17.863Z,63.98
2018-07-04T05:54:58.235Z,62.05
2018-07-04T05:57:38.909Z,63.13
2018-07-04T06:00:19.305Z,62.01
2018-07-04T06:02:59.676Z,61.23
2018-07-04T06:05:39.946Z,61.30
2018-07-04T06:08:20.509Z,61.80
2018-07-04T06:11:00.851Z,59.93
2018-07-04T06:13:41.203Z,59.62
2018-07-04T06:16:21.476Z,57.83
2018-07-04T06:19:02.171Z,57.76
2018-07-04T06:21:42.687Z,58.55
2018-07-04T06:24:23.058Z,55.64
2018-07-04T06:27:03.962Z,55.61
2018-07-04T06:29:44.555Z,55.24
2018-07-04T06:32:25.027Z,55.16
2018-07-04T06:35:05.371Z,56.64
2018-07-04T06:37:39.306Z,55.56
2018-07-04T06:40:07.758Z,54.47
2018-07-04T06:42:36.852Z,52.84
2018-07-04T06:45:04.865Z,52.95
2018-07-04T06:47:33.182Z,51.81
2018-07-04T06:50:01.306Z,51.64
2018-07-04T06:52:29.365Z,50.96
2018-07-04T06:54:57.470Z,51.83
2018-07-04T06:57:25.616Z,51.56
2018-07-04T06:59:53.770Z,50.46
2018-07-04T07:02:22.174Z,49.85
2018-07-04T07:05:03.610Z,48.79
2018-07-04T07:07:44.964Z,47.28
2018-07-04T07:10:25.278Z,48.21
2018-07-04T07:13:05.710Z,47.84
2018-07-04T07:15:46.047Z,46.39
2018-07-04T07:18:26.537Z,47.28
2018-07-04T07:21:06.822Z,46.00
2018-07-04T07:23:47.096Z,46.38
2018-07-04T07:26:27.396Z,45.62
2018-07-04T07:29:07.964Z,45.66
2018-07-04T07:31:48.455Z,46.60
2018-07-04T07:34:28.802Z,44.83
2018-07-04T07:37:09.279Z,46.15
2018-07-04T07:39:49.698Z,44.89
2018-07-04T07:42:30.099Z,44.92
2018-07-04T07:45:10.607Z,45.26
2018-07-04T07:47:51.197Z,43.99
2018-07-04T07:50:31.822Z,44.40
2018-07-04T07:53:12.271Z,43.84
2018-07-04T07:55:52.821Z,43.50
2018-07-04T07:58:33.193Z,42.10
2018-07-04T08:01:13.924Z,43.79
2018-07-04T08:03:54.498Z,44.82
2018-07-04T08:06:34.870Z,43.31
2018-07-04T08:09:15.262Z,42.98
2018-07-04T08:11:55.606Z,41.41
2018-07-04T08:14:36.051Z,41.59
2018-07-04T08:17:16.589Z,41.58
2018-07-04T08:19:56.914Z,41.40
2018-07-04T08:22:37.261Z,43.14
2018-07-04T08:25:17.722Z,44.12
2018-07-04T08:27:58.208Z,42.09
2018-07-04T08:30:38.762Z,41.60
2018-07-04T08:33:19.197Z,41.32
2018-07-04T08:35:59.485Z,40.80
2018-07-04T08:38:40.067Z,40.52
2018-07-04T08:41:20.471Z,39.89
2018-07-04T08:44:00.983Z,39.33
2018-07-04T08:46:41.406Z,40.83
2018-07-04T08:49:21.910Z,39.26
2018-07-04T08:52:02.370Z,39.36
2018-07-04T08:54:42.755Z,39.79
2018-07-04T08:57:23.236Z,39.40
2018-07-04T09:00:03.498Z,38.03
2018-07-04T09:02:43.946Z,36.44
2018-07-04T09:05:24.270Z,35.96
2018-07-04T09:08:04.775Z,35.93
2018-07-04T09:10:45.178Z,36.47
2018-07-04T09:13:25.559Z,35.97
2018-07-04T09:16:05.878Z,39.00
2018-07-04T09:18:46.426Z,40.74
2018-07-04T09:21:26.935Z,39.63
2018-07-04T09:24:07.284Z,38.27
2018-07-04T09:26:47.815Z,38.02
2018-07-04T09:29:28.248Z,38.16
2018-07-04T09:32:08.620Z,36.98
2018-07-04T09:34:49.013Z,35.90
2018-07-04T09:37:29.401Z,34.89
2018-07-04T09:40:09.711Z,35.17
2018-07-04T09:42:50.144Z,36.11
2018-07-04T09:45:30.394Z,35.89
2018-07-04T09:48:10.873Z,35.81
2018-07-04T09:50:50.949Z,35.23
2018-07-04T09:53:31.364Z,36.81
2018-07-04T09:56:11.921Z,36.63
2018-07-04T09:58:52.607Z,35.71
2018-07-04T10:01:32.976Z,37.06
2018-07-04T10:04:13.485Z,35.86
2018-07-04T10:06:53.862Z,34.78
2018-07-04T10:09:34.163Z,34.47
2018-07-04T10:12:14.626Z,34.15
2018-07-04T10:14:54.967Z,35.09
2018-07-04T10:17:35.379Z,34.18
2018-07-04T10:20:15.624Z,35.46
2018-07-04T10:22:55.991Z,34.16
2018-07-04T10:25:36.327Z,33.43
2018-07-04T10:28:16.729Z,32.36
2018-07-04T10:30:57.169Z,33.75
2018-07-04T10:33:37.530Z,33.69
2018-07-04T10:36:18.040Z,35.02
2018-07-04T10:38:58.437Z,32.18
2018-07-04T10:41:38.810Z,31.99
2018-07-04T10:44:19.125Z,33.29
2018-07-04T10:46:59.435Z,32.64
2018-07-04T10:49:39.919Z,33.60
2018-07-04T10:52:20.352Z,33.64
2018-07-04T10:55:00.745Z,32.61
2018-07-04T10:57:41.145Z,33.18
2018-07-04T11:00:21.398Z,33.11
2018-07-04T11:03:01.951Z,33.18
2018-07-04T11:05:42.394Z,33.70
2018-07-04T11:08:22.975Z,32.81
2018-07-04T11:11:03.429Z,33.21
2018-07-04T11:13:43.834Z,34.16
2018-07-04T11:16:24.080Z,32.45
2018-07-04T11:19:04.609Z,34.41
2018-07-04T11:21:45.073Z,37.63
2018-07-04T11:24:25.541Z,36.54
2018-07-04T11:27:06.204Z,36.96
2018-07-04T11:29:46.793Z,35.53
2018-07-04T11:32:27.320Z,35.51
2018-07-04T11:35:07.868Z,36.08
2018-07-04T11:37:48.340Z,34.62
2018-07-04T11:40:28.725Z,35.70
2018-07-04T11:43:09.208Z,37.58
2018-07-04T11:45:49.744Z,39.14
2018-07-04T11:48:17.958Z,38.69
2018-07-04T11:50:46.210Z,38.29
2018-07-04T11:53:14.394Z,37.19
2018-07-04T11:55:42.563Z,36.16
2018-07-04T11:58:10.729Z,36.17
2018-07-04T12:00:38.851Z,36.09
2018-07-04T12:03:18.627Z,36.24
2018-07-04T12:05:59.356Z,35.02
2018-07-04T12:08:27.770Z,33.44
2018-07-04T12:10:56.445Z,34.81
2018-07-04T12:13:25.898Z,31.49
2018-07-04T12:15:54.215Z,30.05
2018-07-04T12:18:22.369Z,33.09
2018-07-04T12:20:50.538Z,33.65
2018-07-04T12:23:18.719Z,27.70
2018-07-04T12:25:46.880Z,26.50
2018-07-04T12:28:15.040Z,24.37
2018-07-04T12:30:43.153Z,27.32
2018-07-04T12:33:11.245Z,27.34
2018-07-04T12:35:39.238Z,30.27
2018-07-04T12:38:07.285Z,32.85
2018-07-04T12:40:35.502Z,34.08
2018-07-04T12:43:03.707Z,34.15
2018-07-04T12:45:39.395Z,32.70
2018-07-04T12:47:59.917Z,27.68
2018-07-04T12:50:29.643Z,26.96
2018-07-04T12:52:57.857Z,28.77
2018-07-04T12:55:39.602Z,28.32
2018-07-04T12:58:20.833Z,26.43
2018-07-04T13:01:01.437Z,26.52
2018-07-04T13:03:42.050Z,27.08
2018-07-04T13:06:23.013Z,27.82
2018-07-04T13:09:04.172Z,27.51
2018-07-04T13:11:44.581Z,28.73
2018-07-04T13:14:24.865Z,27.54
2018-07-04T13:17:05.298Z,28.58
2018-07-04T13:19:45.762Z,29.35
2018-07-04T13:22:26.012Z,29.31
2018-07-04T13:25:06.534Z,30.68
2018-07-04T13:27:46.974Z,28.52
2018-07-04T13:30:27.491Z,29.92
2018-07-04T13:33:07.801Z,30.15
2018-07-04T13:35:48.229Z,29.34
2018-07-04T13:38:28.671Z,28.08
2018-07-04T13:41:09.248Z,28.86
2018-07-04T13:43:49.869Z,28.96
2018-07-04T13:46:30.283Z,27.66
2018-07-04T13:49:10.796Z,28.74
2018-07-04T13:51:51.330Z,29.71
2018-07-04T13:54:31.716Z,30.93
2018-07-04T13:57:12.172Z,30.99
2018-07-04T13:59:52.642Z,28.54
2018-07-04T14:02:33.065Z,28.82
2018-07-04T14:05:13.538Z,30.35
2018-07-04T14:07:54.264Z,29.61
2018-07-04T14:10:34.916Z,29.70
2018-07-04T14:13:15.418Z,29.99
2018-07-04T14:15:55.706Z,31.47
2018-07-04T14:18:36.065Z,29.92
2018-07-04T14:21:16.517Z,28.84
2018-07-04T14:23:57.294Z,28.37
2018-07-04T14:26:37.935Z,28.83
2018-07-04T14:29:18.459Z,29.05
2018-07-04T14:31:58.863Z,29.67
2018-07-04T14:34:39.228Z,30.38
2018-07-04T14:37:20.014Z,30.67
2018-07-04T14:40:00.508Z,30.45
2018-07-04T14:42:40.973Z,30.14
2018-07-04T14:45:21.428Z,30.27
2018-07-04T14:48:02.258Z,33.69
2018-07-04T14:50:42.794Z,34.93
2018-07-04T14:53:23.134Z,34.54
2018-07-04T14:56:03.496Z,36.59
2018-07-04T14:58:43.947Z,35.44
2018-07-04T15:01:24.482Z,37.68
2018-07-04T15:04:05.061Z,37.56
2018-07-04T15:06:45.746Z,37.87
2018-07-04T15:09:26.438Z,37.13
2018-07-04T15:12:06.927Z,39.32
2018-07-04T15:14:47.447Z,40.56
2018-07-04T15:17:28.250Z,40.89
2018-07-04T15:20:08.842Z,39.68
2018-07-04T15:22:49.434Z,40.63
2018-07-04T15:25:30.192Z,40.66
2018-07-04T15:28:10.891Z,39.33
2018-07-04T15:30:51.808Z,38.97
2018-07-04T15:33:32.290Z,38.10
2018-07-04T15:36:13.063Z,39.17
2018-07-04T15:38:53.776Z,39.16
2018-07-04T15:41:34.581Z,38.76
2018-07-04T15:44:15.276Z,39.42
2018-07-04T15:46:56.044Z,39.33
2018-07-04T15:49:36.517Z,38.27
2018-07-04T15:52:17.324Z,37.43
2018-07-04T15:54:57.982Z,38.48
2018-07-04T15:57:38.638Z,38.79
2018-07-04T16:00:19.212Z,39.34
2018-07-04T16:02:59.995Z,38.53
2018-07-04T16:05:40.598Z,40.05
2018-07-04T16:08:21.169Z,39.08
2018-07-04T16:11:02.130Z,40.09
2018-07-04T16:13:42.979Z,41.22
2018-07-04T16:16:23.689Z,40.73
2018-07-04T16:19:04.391Z,41.08
2018-07-04T16:21:45.088Z,42.89
2018-07-04T16:24:26.016Z,43.31
2018-07-04T16:27:06.804Z,43.08
2018-07-04T16:29:47.476Z,43.46
2018-07-04T16:32:28.221Z,41.64
2018-07-04T16:35:08.814Z,43.06
2018-07-04T16:37:49.731Z,42.28
2018-07-04T16:40:30.899Z,43.75
2018-07-04T16:43:11.621Z,42.62
2018-07-04T16:45:52.255Z,43.35
2018-07-04T16:48:32.995Z,43.58
2018-07-04T16:51:13.849Z,42.87
2018-07-04T16:53:54.535Z,43.69
2018-07-04T16:56:35.363Z,45.32
2018-07-04T16:59:16.149Z,49.96
2018-07-04T17:01:57.031Z,49.26
2018-07-04T17:04:37.832Z,48.01
2018-07-04T17:07:18.657Z,48.47
2018-07-04T17:09:59.418Z,46.36
2018-07-04T17:12:40.374Z,49.72
2018-07-04T17:15:21.117Z,47.82
2018-07-04T17:18:01.740Z,48.23
2018-07-04T17:20:42.369Z,49.11
2018-07-04T17:23:23.165Z,52.32
2018-07-04T17:26:04.046Z,54.26
2018-07-04T17:28:44.918Z,51.96
2018-07-04T17:31:25.723Z,53.41
2018-07-04T17:34:06.309Z,52.01
2018-07-04T17:36:47.177Z,53.97
2018-07-04T17:39:28.050Z,54.18
2018-07-04T17:42:08.634Z,55.37
2018-07-04T17:44:49.311Z,54.19
2018-07-04T17:47:30.204Z,55.58
2018-07-04T17:50:11.005Z,58.18
2018-07-04T17:52:51.734Z,61.77
2018-07-04T17:55:32.453Z,64.59
2018-07-04T17:58:13.204Z,61.56
2018-07-04T18:00:54.014Z,64.69
2018-07-04T18:03:34.785Z,66.90
2018-07-04T18:06:15.358Z,71.28
2018-07-04T18:08:56.031Z,69.22
2018-07-04T18:11:36.794Z,64.09
2018-07-04T18:14:17.865Z,61.91
2018-07-04T18:16:58.734Z,59.89
2018-07-04T18:19:39.509Z,59.81
2018-07-04T18:22:20.181Z,64.16
2018-07-04T18:25:00.928Z,62.19
2018-07-04T18:27:41.637Z,61.40
2018-07-04T18:30:22.355Z,60.96
2018-07-04T18:33:03.176Z,62.81
2018-07-04T18:35:43.925Z,65.30
2018-07-04T18:38:24.591Z,65.90
2018-07-04T18:41:05.380Z,61.33
2018-07-04T18:43:46.033Z,60.63
2018-07-04T18:46:26.693Z,62.86
2018-07-04T18:49:07.541Z,62.18
2018-07-04T18:51:48.328Z,61.97
2018-07-04T18:54:28.876Z,61.47
2018-07-04T18:57:09.508Z,60.15
2018-07-04T18:59:50.030Z,61.09
2018-07-04T19:02:30.824Z,60.30
2018-07-04T19:05:11.628Z,61.01
2018-07-04T19:07:52.627Z,64.48
2018-07-04T19:10:33.357Z,66.10
2018-07-04T19:13:14.245Z,66.92
2018-07-04T19:15:55.317Z,66.95
2018-07-04T19:18:36.045Z,67.04
2018-07-04T19:21:16.627Z,66.87
2018-07-04T19:23:57.335Z,68.32
2018-07-04T19:26:38.061Z,67.52
2018-07-04T19:29:18.734Z,68.61
2018-07-04T19:31:59.208Z,66.98
2018-07-04T19:34:39.787Z,69.13
2018-07-04T19:37:20.225Z,73.68
2018-07-04T19:40:00.603Z,83.02
2018-07-04T19:42:41.125Z,86.23
2018-07-04T19:45:21.918Z,83.19
2018-07-04T19:48:02.732Z,78.85
2018-07-04T19:50:43.106Z,76.29
2018-07-04T19:53:23.574Z,73.65
2018-07-04T19:56:04.118Z,71.74
2018-07-04T19:58:44.427Z,72.58
2018-07-04T20:01:24.857Z,71.86
2018-07-04T20:04:05.238Z,71.71
2018-07-04T20:06:45.528Z,68.34
2018-07-04T20:09:26.070Z,70.58
2018-07-04T20:12:06.431Z,73.11
2018-07-04T20:14:46.858Z,73.25
2018-07-04T20:17:27.554Z,69.88
2018-07-04T20:20:07.991Z,71.57
2018-07-04T20:22:48.303Z,73.71
2018-07-04T20:25:28.736Z,73.19
2018-07-04T20:28:09.189Z,74.82
2018-07-04T20:30:49.753Z,71.86
2018-07-04T20:33:30.268Z,71.52
2018-07-04T20:36:10.731Z,72.65
2018-07-04T20:38:51.140Z,75.09
2018-07-04T20:41:32.649Z,73.70
2018-07-04T20:44:12.952Z,72.60
2018-07-04T20:46:53.509Z,69.17
2018-07-04T20:49:33.714Z,67.06
2018-07-04T20:52:14.071Z,67.17
2018-07-04T20:54:55.518Z,66.81
2018-07-04T20:57:35.856Z,65.80
2018-07-04T21:00:16.365Z,66.61
2018-07-04T21:02:57.001Z,66.30
2018-07-04T21:05:37.249Z,65.95
2018-07-04T21:08:17.789Z,66.51
2018-07-04T21:10:58.210Z,66.22
2018-07-04T21:13:38.585Z,70.33
2018-07-04T21:16:19.006Z,70.04
2018-07-04T21:18:59.461Z,68.66
2018-07-04T21:21:39.769Z,66.75
2018-07-04T21:24:20.202Z,68.57
2018-07-04T21:27:00.945Z,67.97
2018-07-04T21:29:41.331Z,68.11
2018-07-04T21:32:21.698Z,66.41
2018-07-04T21:35:02.037Z,69.04
2018-07-04T21:37:42.552Z,67.52
2018-07-04T21:40:22.928Z,71.85
2018-07-04T21:43:03.347Z,73.04
2018-07-04T21:45:43.786Z,69.57
2018-07-04T21:48:24.331Z,70.16
2018-07-04T21:51:04.842Z,71.47
2018-07-04T21:53:45.135Z,69.27
2018-07-04T21:56:25.459Z,69.29
2018-07-04T21:59:05.916Z,67.68
2018-07-04T22:01:46.465Z,66.58
2018-07-04T22:04:26.884Z,64.78
2018-07-04T22:07:07.316Z,63.83
2018-07-04T22:09:47.684Z,64.68
2018-07-04T22:12:28.062Z,65.47
2018-07-04T22:15:08.526Z,69.14
2018-07-04T22:17:48.787Z,66.81
2018-07-04T22:20:28.938Z,68.34
2018-07-04T22:23:09.327Z,71.95
2018-07-04T22:25:49.824Z,71.52
2018-07-04T22:28:30.249Z,70.70
2018-07-04T22:31:10.789Z,68.39
2018-07-04T22:33:51.125Z,67.80
2018-07-04T22:36:31.442Z,67.65
2018-07-04T22:39:11.948Z,68.81
2018-07-04T22:41:52.551Z,67.84
2018-07-04T22:44:33.169Z,66.65
2018-07-04T22:47:13.621Z,66.17
2018-07-04T22:49:53.952Z,66.44
2018-07-04T22:52:34.296Z,67.25
2018-07-04T22:55:14.789Z,65.40
2018-07-04T22:57:55.383Z,67.08
2018-07-04T23:00:35.799Z,70.44
2018-07-04T23:03:16.390Z,70.04
2018-07-04T23:05:56.812Z,68.17
2018-07-04T23:08:37.152Z,67.48
2018-07-04T23:11:17.573Z,67.28
2018-07-04T23:13:58.195Z,65.96
2018-07-04T23:16:38.810Z,70.47
2018-07-04T23:19:19.439Z,70.06
2018-07-04T23:22:00.046Z,69.80
2018-07-04T23:24:40.825Z,67.89
2018-07-04T23:27:21.241Z,66.73
2018-07-04T23:30:01.636Z,69.26
2018-07-04T23:32:42.201Z,67.11
2018-07-04T23:35:22.591Z,67.46
2018-07-04T23:38:02.905Z,68.61
2018-07-04T23:40:43.250Z,67.94
2018-07-04T23:43:23.505Z,67.99
2018-07-04T23:46:04.030Z,67.47
2018-07-04T23:48:44.521Z,65.44
2018-07-04T23:51:24.959Z,65.57
2018-07-04T23:54:05.384Z,66.57
2018-07-04T23:56:45.783Z,66.97
2018-07-04T23:59:26.220Z,66.96
